Time;durP1;ratioP1;P1;durP2;ratioP2;P2;SDS_P1;SDS_P2;PMS_P1;PMS_P2;Temp;Humidity;BMP_temperature;BMP_pressure;BME280_temperature;BME280_humidity;BME280_pressure;Samples;Min_cycle;Max_cycle;Signal;HPM_P1;HPM_P2
2022/11/29 00:01:15;;;;;;;173.45;24.67;;;7.30;99.90;;;;;;5055408;28;20387;-47
2022/11/29 00:03:41;;;;;;;111.47;20.52;;;7.40;99.90;;;;;;5056395;28;20059;-51
2022/11/29 00:06:09;;;;;;;240.27;30.27;;;7.30;99.90;;;;;;5055646;28;20048;-43
2022/11/29 00:08:35;;;;;;;188.90;25.33;;;7.40;99.90;;;;;;5055685;28;20563;-48
2022/11/29 00:14:09;;;;;;;143.40;23.98;;;7.40;99.90;;;;;;5068974;28;20097;-44
2022/11/29 00:16:35;;;;;;;227.10;27.27;;;7.40;99.90;;;;;;5055519;28;20056;-42
2022/11/29 00:19:02;;;;;;;205.52;25.92;;;7.20;99.90;;;;;;5056465;28;20049;-43
2022/11/29 00:21:28;;;;;;;150.02;22.00;;;7.20;99.90;;;;;;5052640;28;20041;-46
2022/11/29 00:23:54;;;;;;;102.90;19.23;;;7.20;99.90;;;;;;5052918;28;20048;-46
2022/11/29 00:26:19;;;;;;;181.05;24.15;;;7.20;99.90;;;;;;5055777;28;20097;-45
2022/11/29 00:28:45;;;;;;;81.15;18.80;;;7.10;99.90;;;;;;5055659;28;20044;-43
2022/11/29 00:31:18;;;;;;;183.30;25.20;;;7.30;99.90;;;;;;5055502;28;20048;-44
2022/11/29 00:33:44;;;;;;;90.93;17.77;;;7.20;99.90;;;;;;5055668;28;20872;-45
2022/11/29 00:36:10;;;;;;;116.55;20.10;;;7.20;99.90;;;;;;5054562;28;20059;-46
2022/11/29 00:38:36;;;;;;;138.68;20.55;;;7.20;99.90;;;;;;5055774;28;20041;-46
2022/11/29 00:41:02;;;;;;;76.85;18.10;;;7.20;99.90;;;;;;5055167;28;20044;-44
2022/11/29 00:43:28;;;;;;;150.48;21.88;;;7.10;99.90;;;;;;5056363;28;20041;-47
2022/11/29 00:45:55;;;;;;;159.98;21.10;;;7.10;99.90;;;;;;5046160;28;20064;-45
2022/11/29 00:48:21;;;;;;;142.20;20.85;;;7.10;99.90;;;;;;5050714;28;20458;-44
2022/11/29 00:50:46;;;;;;;135.25;21.50;;;7.10;99.90;;;;;;5054002;28;20041;-44
2022/11/29 00:53:12;;;;;;;126.70;19.45;;;6.90;99.90;;;;;;5054959;28;20047;-44
2022/11/29 00:55:37;;;;;;;149.60;21.58;;;7.00;99.90;;;;;;5054108;28;20040;-42
2022/11/29 00:58:03;;;;;;;120.70;20.70;;;6.90;99.90;;;;;;5054094;28;20110;-47
2022/11/29 01:00:29;;;;;;;150.25;20.13;;;7.00;99.90;;;;;;5055293;28;20040;-45
2022/11/29 01:02:54;;;;;;;144.70;21.40;;;7.00;99.90;;;;;;5055471;28;20076;-47
2022/11/29 01:05:20;;;;;;;89.18;17.27;;;7.00;99.90;;;;;;5053283;28;20079;-45
2022/11/29 01:07:46;;;;;;;90.72;16.90;;;7.00;99.90;;;;;;5055463;28;20182;-45
2022/11/29 01:10:12;;;;;;;175.02;23.13;;;7.00;99.90;;;;;;5056165;28;20458;-43
2022/11/29 01:12:38;;;;;;;138.95;21.02;;;6.90;99.90;;;;;;5055625;28;20945;-42
2022/11/29 01:15:07;;;;;;;138.63;19.23;;;7.00;99.90;;;;;;5055076;28;20083;-44
2022/11/29 01:17:37;;;;;;;158.00;21.33;;;6.90;99.90;;;;;;5055728;28;20044;-48
2022/11/29 01:20:06;;;;;;;140.45;20.23;;;6.90;99.90;;;;;;5055288;28;20498;-47
2022/11/29 01:22:33;;;;;;;154.48;21.48;;;6.90;99.90;;;;;;5046752;28;20032;-45
2022/11/29 01:24:59;;;;;;;131.20;18.88;;;6.80;99.90;;;;;;5055332;28;20470;-47
2022/11/29 01:27:24;;;;;;;110.78;17.73;;;6.90;99.90;;;;;;5054523;28;20047;-44
2022/11/29 01:29:50;;;;;;;165.25;20.63;;;6.80;99.90;;;;;;5054958;28;20838;-45
2022/11/29 01:32:16;;;;;;;131.90;18.67;;;6.90;99.90;;;;;;5053788;28;20380;-45
2022/11/29 01:34:41;;;;;;;153.80;21.10;;;6.80;99.90;;;;;;5055235;28;20032;-43
2022/11/29 01:37:07;;;;;;;176.27;21.60;;;6.80;99.90;;;;;;5055366;28;20036;-42
2022/11/29 01:39:33;;;;;;;169.50;21.02;;;6.90;99.90;;;;;;5058767;28;20048;-45
2022/11/29 01:41:59;;;;;;;131.57;19.73;;;6.80;99.90;;;;;;5058146;28;20295;-47
2022/11/29 01:44:25;;;;;;;141.00;19.80;;;6.90;99.90;;;;;;5059434;28;20040;-49
2022/11/29 01:46:53;;;;;;;211.30;22.92;;;6.80;99.90;;;;;;5044461;28;20048;-46
2022/11/29 01:49:39;;;;;;;132.00;18.88;;;6.90;99.90;;;;;;5058508;28;20050;-49
2022/11/29 01:52:14;;;;;;;148.45;21.05;;;6.80;99.90;;;;;;5045682;28;20493;-47
2022/11/29 01:54:49;;;;;;;98.00;16.75;;;6.90;99.90;;;;;;5058383;28;20055;-48
2022/11/29 01:57:17;;;;;;;121.95;19.63;;;6.80;99.90;;;;;;5058865;28;20321;-42
2022/11/29 01:59:49;;;;;;;142.75;20.35;;;6.80;99.90;;;;;;5058496;28;20044;-44
2022/11/29 02:02:21;;;;;;;166.37;21.93;;;6.80;99.90;;;;;;5057688;28;20044;-48
2022/11/29 02:04:48;;;;;;;196.23;23.67;;;6.80;99.90;;;;;;5057982;28;20040;-49
2022/11/29 02:07:14;;;;;;;183.18;23.05;;;6.80;99.90;;;;;;5058628;28;20047;-43
2022/11/29 02:09:40;;;;;;;150.93;21.00;;;6.70;99.90;;;;;;5057588;28;20478;-46
2022/11/29 02:12:21;;;;;;;189.63;24.33;;;6.70;99.90;;;;;;5057223;28;20189;-46
2022/11/29 02:15:12;;;;;;;172.15;23.52;;;6.80;99.90;;;;;;5044876;28;20082;-46
2022/11/29 02:18:06;;;;;;;161.85;22.38;;;6.70;99.90;;;;;;5056106;28;20044;-45
2022/11/29 02:21:03;;;;;;;162.05;23.15;;;6.80;99.90;;;;;;5057667;28;20397;-48
2022/11/29 02:23:44;;;;;;;104.97;20.90;;;6.80;99.90;;;;;;5050770;28;20048;-47
2022/11/29 02:26:45;;;;;;;75.03;18.50;;;6.60;99.90;;;;;;5057067;28;20411;-44
2022/11/29 02:29:38;;;;;;;150.98;23.65;;;6.60;99.90;;;;;;5057494;28;20071;-43
2022/11/29 02:32:38;;;;;;;116.97;21.70;;;6.70;99.90;;;;;;5056967;28;20051;-45
2022/11/29 02:35:31;;;;;;;142.55;23.35;;;6.70;99.90;;;;;;5057122;28;20048;-47
2022/11/29 02:38:02;;;;;;;134.80;21.48;;;6.70;99.90;;;;;;5057650;28;20064;-48
2022/11/29 02:40:45;;;;;;;104.35;19.20;;;6.60;99.90;;;;;;5057174;28;20455;-46
2022/11/29 02:43:38;;;;;;;108.25;19.98;;;6.60;99.90;;;;;;5055367;28;20075;-47
2022/11/29 02:46:11;;;;;;;169.30;23.98;;;6.70;99.90;;;;;;5046079;28;20068;-47
2022/11/29 02:48:56;;;;;;;113.63;19.65;;;6.70;99.90;;;;;;5054436;28;20048;-46
2022/11/29 02:51:31;;;;;;;155.80;22.02;;;6.70;99.90;;;;;;5055594;28;20154;-45
2022/11/29 02:54:19;;;;;;;170.63;25.27;;;6.50;99.90;;;;;;5057049;28;20147;-46
2022/11/29 02:56:50;;;;;;;204.68;25.52;;;6.70;99.90;;;;;;5055468;28;20048;-47
2022/11/29 02:59:36;;;;;;;174.32;23.98;;;6.70;99.90;;;;;;5056946;28;20060;-50
2022/11/29 03:02:36;;;;;;;181.25;25.20;;;6.60;99.90;;;;;;5042742;28;20045;-47
2022/11/29 03:05:32;;;;;;;136.13;20.83;;;6.60;99.90;;;;;;5040485;28;20577;-45
2022/11/29 03:08:16;;;;;;;151.10;21.98;;;6.40;99.90;;;;;;5055416;28;20079;-46
2022/11/29 03:10:58;;;;;;;149.90;20.65;;;6.40;99.90;;;;;;5056227;28;20052;-48
2022/11/29 03:13:55;;;;;;;153.13;22.50;;;6.40;99.90;;;;;;5055735;28;20086;-48
2022/11/29 03:16:53;;;;;;;211.38;25.90;;;6.40;99.90;;;;;;5043832;28;20052;-44
2022/11/29 03:19:28;;;;;;;155.93;24.10;;;6.50;99.90;;;;;;5055224;28;20048;-44
2022/11/29 03:22:20;;;;;;;231.88;27.17;;;6.50;99.90;;;;;;5049442;28;20037;-46
2022/11/29 03:25:01;;;;;;;204.07;26.98;;;6.50;99.90;;;;;;5045675;28;20323;-46
2022/11/29 03:27:54;;;;;;;227.18;27.42;;;6.50;99.90;;;;;;5056213;28;20123;-47
2022/11/29 03:30:20;;;;;;;192.73;25.80;;;6.50;99.90;;;;;;5055500;28;20067;-45
2022/11/29 03:33:04;;;;;;;207.82;25.77;;;6.40;99.90;;;;;;5053743;28;20056;-43
2022/11/29 03:35:38;;;;;;;160.93;22.52;;;6.40;99.90;;;;;;5055369;28;20037;-49
2022/11/29 03:38:26;;;;;;;170.40;24.13;;;6.50;99.90;;;;;;5056593;28;20076;-47
2022/11/29 03:41:11;;;;;;;166.23;23.95;;;6.40;99.90;;;;;;5056431;28;20386;-46
2022/11/29 03:44:03;;;;;;;215.10;26.20;;;6.50;99.90;;;;;;5056356;28;20271;-44
2022/11/29 03:46:57;;;;;;;158.00;24.38;;;6.40;99.90;;;;;;5042070;28;20412;-46
2022/11/29 03:49:25;;;;;;;;;;;6.30;99.90;;;;;;5054976;28;20060;-43
2022/11/29 03:52:16;;;;;;;140.38;21.65;;;6.30;99.90;;;;;;5055379;28;19977;-44
2022/11/29 03:55:00;;;;;;;112.20;20.73;;;6.50;99.90;;;;;;5054910;28;20049;-43
2022/11/29 03:58:01;;;;;;;85.35;19.67;;;6.30;99.90;;;;;;5055842;28;20156;-49
2022/11/29 04:00:46;;;;;;;87.72;18.48;;;6.30;99.90;;;;;;5014297;28;20440;-46
2022/11/29 04:03:23;;;;;;;181.63;24.77;;;6.50;99.90;;;;;;5014284;28;20055;-49
2022/11/29 04:06:22;;;;;;;191.52;25.05;;;6.50;99.90;;;;;;5015681;28;20354;-45
2022/11/29 04:09:09;;;;;;;122.10;23.92;;;6.30;99.90;;;;;;5032289;28;20065;-43
2022/11/29 04:11:57;;;;;;;85.00;19.27;;;6.40;99.90;;;;;;5030915;28;20053;-47
2022/11/29 04:14:55;;;;;;;140.98;22.50;;;6.50;99.90;;;;;;5007558;28;20605;-46
2022/11/29 04:17:25;;;;;;;134.85;22.65;;;6.30;99.90;;;;;;4917334;29;20063;-46
2022/11/29 04:20:10;;;;;;;160.38;25.52;;;6.40;99.90;;;;;;4934789;29;20063;-46
2022/11/29 04:22:57;;;;;;;114.30;22.30;;;6.20;99.90;;;;;;4933414;29;20514;-45
2022/11/29 04:25:58;;;;;;;81.50;20.15;;;6.30;99.90;;;;;;4921140;29;20463;-43
2022/11/29 04:28:36;;;;;;;150.20;24.73;;;6.30;99.90;;;;;;4922509;29;20427;-46
2022/11/29 04:31:23;;;;;;;86.93;20.02;;;6.30;99.90;;;;;;4934772;29;20512;-42
2022/11/29 04:34:26;;;;;;;98.05;19.58;;;6.30;99.90;;;;;;4930636;29;20070;-49
2022/11/29 04:37:10;;;;;;;121.28;22.77;;;6.30;99.90;;;;;;4946105;28;20425;-46
2022/11/29 04:40:01;;;;;;;77.68;20.42;;;6.30;99.90;;;;;;4985324;28;20049;-48
2022/11/29 04:43:03;;;;;;;133.77;23.48;;;6.10;99.90;;;;;;4991340;28;20503;-48
2022/11/29 04:45:48;;;;;;;167.32;24.35;;;6.10;99.90;;;;;;4990744;28;20093;-46
2022/11/29 04:48:51;;;;;;;147.07;21.52;;;6.10;99.90;;;;;;4979212;28;20050;-45
2022/11/29 04:51:35;;;;;;;187.43;26.08;;;6.00;99.90;;;;;;4991267;28;20050;-46
2022/11/29 04:54:19;;;;;;;153.63;22.23;;;6.00;99.90;;;;;;5008089;28;20060;-46
2022/11/29 04:56:53;;;;;;;154.30;23.85;;;6.00;99.90;;;;;;5053931;28;20194;-43
2022/11/29 04:59:33;;;;;;;136.48;22.13;;;6.00;99.90;;;;;;5055416;28;20371;-52
2022/11/29 05:02:36;;;;;;;187.50;24.38;;;6.00;99.90;;;;;;5042946;28;20053;-46
2022/11/29 05:05:20;;;;;;;177.23;23.83;;;6.00;99.90;;;;;;5052911;28;20098;-45
2022/11/29 05:08:04;;;;;;;220.73;24.60;;;6.00;99.90;;;;;;5053398;28;20386;-46
2022/11/29 05:10:57;;;;;;;186.98;22.77;;;6.10;99.90;;;;;;5054703;28;20099;-49
2022/11/29 05:13:23;;;;;;;199.75;23.58;;;6.10;99.90;;;;;;5055819;28;20040;-44
2022/11/29 05:16:04;;;;;;;237.43;25.33;;;6.00;99.90;;;;;;5058494;28;20512;-46
2022/11/29 05:18:42;;;;;;;199.23;22.23;;;6.10;99.90;;;;;;5058466;28;20055;-46
2022/11/29 05:21:23;;;;;;;168.35;20.77;;;6.10;99.90;;;;;;5055751;28;20074;-43
2022/11/29 05:24:10;;;;;;;139.30;18.13;;;6.10;99.90;;;;;;5053893;28;20451;-46
2022/11/29 05:27:15;;;;;;;136.18;19.30;;;5.90;99.90;;;;;;5059510;28;20040;-43
2022/11/29 05:29:49;;;;;;;115.40;18.50;;;5.90;99.90;;;;;;5035360;28;20063;-43
2022/11/29 05:32:51;;;;;;;118.72;17.15;;;5.90;99.90;;;;;;5034172;28;20071;-49
2022/11/29 05:35:42;;;;;;;101.45;14.52;;;6.10;99.90;;;;;;5034076;28;20064;-44
2022/11/29 05:38:15;;;;;;;168.45;20.30;;;6.10;99.90;;;;;;5035124;28;20255;-46
2022/11/29 05:41:08;;;;;;;160.45;18.92;;;5.90;99.90;;;;;;5013280;28;20186;-44
2022/11/29 05:43:55;;;;;;;157.20;18.35;;;6.00;99.90;;;;;;5014907;28;20046;-45
2022/11/29 05:46:44;;;;;;;161.77;18.23;;;5.90;99.90;;;;;;5000489;28;20053;-44
2022/11/29 05:49:28;;;;;;;170.75;19.65;;;5.90;99.90;;;;;;5005133;28;20696;-49
2022/11/29 05:52:20;;;;;;;149.82;19.00;;;6.00;99.90;;;;;;5014494;28;20045;-45
2022/11/29 05:55:04;;;;;;;142.38;18.23;;;5.90;99.90;;;;;;5014201;28;20860;-46
2022/11/29 05:57:51;;;;;;;167.55;18.42;;;5.90;99.90;;;;;;5014696;28;20051;-47
2022/11/29 06:00:18;;;;;;;122.22;16.70;;;5.90;99.90;;;;;;5014799;28;20053;-49
2022/11/29 06:03:04;;;;;;;113.80;16.02;;;6.00;99.90;;;;;;5014304;28;20049;-45
2022/11/29 06:05:35;;;;;;;137.82;18.67;;;6.00;99.90;;;;;;5015669;28;20049;-49
2022/11/29 06:08:12;;;;;;;102.60;17.10;;;6.10;99.90;;;;;;5054889;28;20052;-45
2022/11/29 06:10:42;;;;;;;103.60;16.10;;;6.00;99.90;;;;;;5056342;28;20197;-45
2022/11/29 06:13:28;;;;;;;146.10;18.27;;;5.90;99.90;;;;;;5045043;28;20542;-42
2022/11/29 06:16:15;;;;;;;105.80;14.98;;;6.00;99.90;;;;;;5057298;28;20045;-42
2022/11/29 06:18:59;;;;;;;156.50;18.42;;;5.90;99.90;;;;;;5056528;28;20055;-46
2022/11/29 06:21:52;;;;;;;136.38;16.08;;;6.10;99.90;;;;;;5054356;28;20098;-47
2022/11/29 06:24:43;;;;;;;124.45;16.73;;;6.10;99.90;;;;;;5055581;28;20040;-41
2022/11/29 06:27:36;;;;;;;126.47;16.52;;;6.00;99.90;;;;;;5054344;28;20594;-44
2022/11/29 06:30:12;;;;;;;124.72;17.10;;;6.00;99.90;;;;;;5057181;28;20171;-48
2022/11/29 06:32:43;;;;;;;323.65;32.28;;;6.10;99.90;;;;;;5056523;28;20449;-47
2022/11/29 06:35:29;;;;;;;152.93;18.40;;;6.00;99.90;;;;;;5055893;28;20098;-44
2022/11/29 06:37:56;;;;;;;264.02;23.88;;;6.00;99.90;;;;;;5057333;28;20045;-48
2022/11/29 06:40:22;;;;;;;149.25;19.38;;;6.10;99.90;;;;;;5056618;28;20451;-46
2022/11/29 06:42:47;;;;;;;80.57;15.05;;;5.90;99.90;;;;;;5055357;28;20044;-45
2022/11/29 06:45:14;;;;;;;138.88;19.48;;;5.90;99.90;;;;;;5052417;28;20064;-44
2022/11/29 06:47:49;;;;;;;367.30;30.45;;;5.90;99.90;;;;;;5048451;28;20040;-44
2022/11/29 06:50:52;;;;;;;517.28;39.33;;;6.00;99.90;;;;;;5057624;28;20795;-46
2022/11/29 06:53:57;;;;;;;170.75;21.65;;;5.90;99.90;;;;;;5056598;28;20514;-44
2022/11/29 06:56:39;;;;;;;181.00;22.30;;;5.90;99.90;;;;;;5057315;28;20078;-46
2022/11/29 06:59:18;;;;;;;105.70;18.95;;;5.90;99.90;;;;;;5057354;28;20343;-43
2022/11/29 07:02:09;;;;;;;244.85;26.25;;;5.80;99.90;;;;;;5056561;28;20774;-49
2022/11/29 07:04:55;;;;;;;92.68;19.23;;;5.80;99.90;;;;;;5056625;28;20430;-46
2022/11/29 07:07:22;;;;;;;91.78;19.20;;;5.80;99.90;;;;;;4984838;28;20053;-44
2022/11/29 07:09:55;;;;;;;106.03;21.30;;;5.70;99.90;;;;;;5012802;28;20334;-48
2022/11/29 07:12:21;;;;;;;;;;;5.60;99.90;;;;;;4984772;28;20054;-42
2022/11/29 07:14:47;;;;;;;86.80;19.45;;;5.70;99.90;;;;;;5013235;28;19928;-43
2022/11/29 07:17:46;;;;;;;70.78;17.05;;;5.60;99.90;;;;;;4985071;28;20046;-47
2022/11/29 07:20:28;;;;;;;77.40;18.27;;;5.60;99.90;;;;;;5014086;28;20042;-48
2022/11/29 07:23:10;;;;;;;93.70;19.65;;;5.70;99.90;;;;;;5008286;28;20109;-45
2022/11/29 07:26:14;;;;;;;104.00;18.95;;;5.50;99.90;;;;;;5010541;28;20412;-43
2022/11/29 07:29:18;;;;;;;97.60;19.05;;;5.50;99.90;;;;;;4997039;28;20132;-49
2022/11/29 07:31:46;;;;;;;;;;;5.60;99.90;;;;;;4983301;28;20054;-49
2022/11/29 07:34:20;;;;;;;57.35;17.48;;;5.40;99.90;;;;;;4989418;28;19961;-42
2022/11/29 07:37:07;;;;;;;66.28;19.63;;;5.50;99.90;;;;;;5007540;28;20041;-43
2022/11/29 07:39:39;;;;;;;82.57;19.35;;;5.40;99.90;;;;;;5005503;28;20045;-49
2022/11/29 07:42:15;;;;;;;42.75;16.52;;;5.50;99.90;;;;;;5011980;28;20041;-46
2022/11/29 07:44:56;;;;;;;53.40;17.02;;;5.40;99.90;;;;;;5025605;28;20052;-48
2022/11/29 07:47:21;;;;;;;49.30;19.10;;;5.50;99.90;;;;;;5054705;28;20075;-46
2022/11/29 07:49:47;;;;;;;46.22;17.80;;;5.60;99.90;;;;;;5055188;28;20454;-43
2022/11/29 07:52:15;;;;;;;42.10;17.02;;;5.70;99.90;;;;;;5055130;28;20366;-42
2022/11/29 07:54:40;;;;;;;48.92;18.45;;;5.60;99.90;;;;;;5054451;28;20386;-46
2022/11/29 07:57:06;;;;;;;43.60;18.60;;;5.60;99.90;;;;;;5055664;28;20048;-45
2022/11/29 07:59:32;;;;;;;47.92;17.63;;;5.70;99.90;;;;;;5055497;28;20108;-46
2022/11/29 08:01:58;;;;;;;46.00;18.02;;;5.90;99.90;;;;;;5055223;28;20028;-42
2022/11/29 08:04:24;;;;;;;41.33;17.02;;;5.70;99.90;;;;;;5052926;28;20525;-46
2022/11/29 08:06:50;;;;;;;41.85;17.08;;;5.90;99.90;;;;;;5054588;28;20036;-45
2022/11/29 08:09:15;;;;;;;35.72;16.60;;;5.90;99.90;;;;;;5042679;28;20106;-48
2022/11/29 08:11:41;;;;;;;48.75;18.13;;;6.00;99.90;;;;;;5036637;28;20132;-44
2022/11/29 08:14:07;;;;;;;41.10;17.50;;;6.00;99.90;;;;;;5036231;28;20147;-49
2022/11/29 08:16:32;;;;;;;41.85;17.75;;;6.00;99.90;;;;;;5035576;28;20028;-42
2022/11/29 08:18:58;;;;;;;39.00;16.50;;;6.00;99.90;;;;;;5036037;28;20044;-46
2022/11/29 08:21:24;;;;;;;41.60;17.08;;;6.10;99.90;;;;;;5068966;28;20152;-48
2022/11/29 08:23:49;;;;;;;32.13;15.73;;;6.20;99.90;;;;;;5035082;28;20168;-48
2022/11/29 08:26:17;;;;;;;33.28;14.60;;;6.10;99.90;;;;;;5036444;28;20598;-46
2022/11/29 08:28:43;;;;;;;42.08;17.27;;;6.10;99.90;;;;;;5037975;28;20321;-46
2022/11/29 08:31:10;;;;;;;38.78;16.95;;;6.30;99.90;;;;;;5054652;28;20036;-45
2022/11/29 08:33:39;;;;;;;36.65;17.05;;;6.30;99.90;;;;;;5053756;28;20049;-46
2022/11/29 08:36:15;;;;;;;39.63;16.38;;;6.40;99.90;;;;;;5055682;28;20239;-47
2022/11/29 08:38:40;;;;;;;42.63;17.13;;;6.40;99.90;;;;;;5055791;28;20143;-47
2022/11/29 08:41:08;;;;;;;34.08;16.08;;;6.40;99.90;;;;;;5054026;28;20043;-47
2022/11/29 08:43:34;;;;;;;42.08;17.27;;;6.40;99.90;;;;;;5053961;28;20813;-42
2022/11/29 08:46:00;;;;;;;41.40;15.95;;;6.50;99.90;;;;;;5044141;28;20060;-47
2022/11/29 08:48:26;;;;;;;34.33;16.45;;;6.50;99.90;;;;;;5056921;28;20105;-50
2022/11/29 08:50:53;;;;;;;36.42;15.82;;;6.30;99.90;;;;;;5044806;28;20515;-48
2022/11/29 08:56:04;;;;;;;27.85;15.05;;;6.40;99.90;;;;;;5049095;28;20045;-45
2022/11/29 08:58:29;;;;;;;28.45;14.38;;;6.30;99.90;;;;;;5047291;28;20360;-49
2022/11/29 09:00:55;;;;;;;41.35;16.30;;;6.40;99.90;;;;;;5058647;28;20418;-48
2022/11/29 09:06:07;;;;;;;33.08;15.50;;;6.50;99.90;;;;;;5056455;28;20128;-50
2022/11/29 09:08:33;;;;;;;29.42;15.10;;;6.60;99.90;;;;;;5057493;28;20036;-44
2022/11/29 09:10:59;;;;;;;31.23;15.82;;;6.60;99.90;;;;;;5057422;28;20482;-45
2022/11/29 09:13:24;;;;;;;33.10;16.10;;;6.60;99.90;;;;;;5057677;28;20519;-46
2022/11/29 09:15:50;;;;;;;33.42;15.85;;;6.60;99.90;;;;;;5057765;28;20291;-45
2022/11/29 09:18:16;;;;;;;33.75;16.05;;;6.80;99.90;;;;;;5056729;28;20131;-46
2022/11/29 09:20:43;;;;;;;32.63;15.93;;;6.70;99.90;;;;;;5057542;28;20052;-43
2022/11/29 09:23:09;;;;;;;33.10;15.98;;;6.80;99.90;;;;;;5050834;28;20053;-44
2022/11/29 09:25:35;;;;;;;37.17;17.40;;;7.00;99.90;;;;;;5057599;28;20417;-44
2022/11/29 09:28:01;;;;;;;29.25;14.63;;;6.90;99.90;;;;;;5059239;28;20055;-46
2022/11/29 09:30:32;;;;;;;27.42;14.60;;;7.00;99.90;;;;;;5057630;28;20044;-44
2022/11/29 09:33:01;;;;;;;29.17;14.05;;;7.10;99.90;;;;;;5059465;28;20045;-43
2022/11/29 09:35:29;;;;;;;26.02;13.85;;;7.20;99.90;;;;;;5057529;28;20044;-45
2022/11/29 09:37:54;;;;;;;28.58;14.23;;;7.40;99.90;;;;;;5058616;28;20418;-43
2022/11/29 09:40:24;;;;;;;27.23;13.30;;;7.40;99.90;;;;;;5057121;28;20150;-45
2022/11/29 09:42:59;;;;;;;23.75;12.15;;;7.50;99.90;;;;;;5058040;28;20108;-44
2022/11/29 09:45:31;;;;;;;29.48;12.50;;;7.70;99.90;;;;;;5050437;28;20041;-50
2022/11/29 09:48:29;;;;;;;23.10;11.73;;;7.90;99.90;;;;;;5051655;28;20045;-48
2022/11/29 09:51:18;;;;;;;28.90;13.30;;;8.00;99.90;;;;;;5041462;28;20603;-47
2022/11/29 09:54:14;;;;;;;27.42;12.57;;;7.90;99.90;;;;;;5057260;28;20063;-45
2022/11/29 09:56:52;;;;;;;29.77;12.63;;;8.00;99.90;;;;;;5057670;28;20056;-48
2022/11/29 09:59:24;;;;;;;31.35;11.75;;;8.20;99.90;;;;;;5056812;28;20052;-48
2022/11/29 10:02:02;;;;;;;30.58;12.35;;;8.20;99.90;;;;;;5057313;28;20048;-48
2022/11/29 10:04:38;;;;;;;26.08;11.93;;;8.30;99.90;;;;;;5057000;28;20448;-48
2022/11/29 10:07:22;;;;;;;27.92;11.43;;;8.30;99.90;;;;;;5056173;28;20507;-48
2022/11/29 10:10:01;;;;;;;26.88;11.10;;;8.40;99.90;;;;;;5057331;28;20044;-43
2022/11/29 10:12:47;;;;;;;23.50;10.75;;;8.30;99.90;;;;;;5056947;28;20174;-49
2022/11/29 10:15:24;;;;;;;24.10;9.45;;;8.50;99.90;;;;;;5056836;28;20048;-43
2022/11/29 10:18:15;;;;;;;25.17;9.38;;;8.50;99.90;;;;;;5057711;28;20063;-44
2022/11/29 10:20:43;;;;;;;22.42;10.48;;;8.60;99.90;;;;;;5056728;28;20049;-48
2022/11/29 10:23:36;;;;;;;27.10;10.48;;;8.60;99.90;;;;;;5050138;28;20075;-46
2022/11/29 10:26:06;;;;;;;26.75;9.90;;;8.50;99.90;;;;;;5056985;28;20068;-47
2022/11/29 10:28:35;;;;;;;31.02;10.38;;;8.50;99.90;;;;;;5057443;28;20481;-44
2022/11/29 10:31:15;;;;;;;28.38;11.15;;;8.60;99.90;;;;;;5057232;28;20059;-48
2022/11/29 10:33:42;;;;;;;39.65;11.32;;;8.70;99.90;;;;;;5056567;28;20433;-46
2022/11/29 10:36:35;;;;;;;34.40;11.15;;;8.60;99.90;;;;;;5057526;28;20443;-47
2022/11/29 10:39:04;;;;;;;27.75;10.25;;;8.90;99.90;;;;;;5044692;28;20032;-47
2022/11/29 10:41:30;;;;;;;30.50;10.60;;;8.90;99.90;;;;;;5055929;28;20048;-44
2022/11/29 10:43:58;;;;;;;30.85;10.55;;;9.10;99.90;;;;;;5053058;28;20048;-49
2022/11/29 10:46:29;;;;;;;22.63;9.38;;;9.10;99.90;;;;;;5052332;28;20048;-50
2022/11/29 10:48:58;;;;;;;27.55;9.57;;;9.20;99.90;;;;;;5050405;28;20047;-47
2022/11/29 10:51:24;;;;;;;31.75;9.73;;;9.10;99.90;;;;;;5057435;28;20048;-50
2022/11/29 10:53:53;;;;;;;32.35;9.75;;;9.20;99.90;;;;;;5056572;28;20098;-46
2022/11/29 10:56:28;;;;;;;28.23;9.32;;;9.10;99.90;;;;;;5044467;28;20048;-49
2022/11/29 10:58:53;;;;;;;29.35;9.70;;;9.00;99.90;;;;;;5055968;28;20647;-44
2022/11/29 11:01:19;;;;;;;28.90;9.00;;;8.90;99.90;;;;;;5051869;28;20587;-46
2022/11/29 11:03:53;;;;;;;23.35;7.97;;;9.00;99.90;;;;;;5052625;28;20408;-43
2022/11/29 11:06:27;;;;;;;33.58;9.15;;;9.00;99.90;;;;;;5057715;28;20127;-45
2022/11/29 11:09:21;;;;;;;24.80;7.57;;;8.90;99.90;;;;;;5075241;28;20050;-45
2022/11/29 11:11:53;;;;;;;;;;;9.10;99.90;;;;;;5061957;28;20535;-49
2022/11/29 11:14:37;;;;;;;28.20;8.65;;;9.00;99.90;;;;;;5056714;28;20003;-46
2022/11/29 11:17:15;;;;;;;30.20;8.15;;;9.00;99.90;;;;;;5057018;28;20048;-47
2022/11/29 11:19:41;;;;;;;25.65;7.40;;;9.00;99.90;;;;;;5045780;28;20123;-44
2022/11/29 11:22:19;;;;;;;30.02;7.60;;;9.20;99.90;;;;;;5056446;28;20394;-45
2022/11/29 11:24:45;;;;;;;28.02;8.93;;;9.20;99.90;;;;;;5056978;28;20099;-48
2022/11/29 11:27:11;;;;;;;20.90;7.75;;;9.30;99.90;;;;;;5057496;28;20493;-49
2022/11/29 11:29:41;;;;;;;28.27;8.55;;;9.20;99.90;;;;;;5057325;28;20087;-47
2022/11/29 11:32:15;;;;;;;26.15;8.25;;;9.30;99.90;;;;;;5056774;28;20047;-48
2022/11/29 11:34:49;;;;;;;30.52;8.25;;;9.20;99.90;;;;;;5045214;28;20048;-46
2022/11/29 11:37:23;;;;;;;30.88;8.73;;;9.40;99.90;;;;;;5056833;28;20546;-42
2022/11/29 11:39:51;;;;;;;24.35;8.80;;;9.30;99.90;;;;;;5062491;28;20063;-47
2022/11/29 11:42:35;;;;;;;24.85;8.40;;;9.30;99.90;;;;;;5041278;28;20111;-44
2022/11/29 11:45:34;;;;;;;28.58;8.98;;;9.20;99.90;;;;;;5056065;28;20075;-46
2022/11/29 11:48:18;;;;;;;25.30;7.97;;;9.40;99.90;;;;;;5057160;28;20080;-47
2022/11/29 11:50:48;;;;;;;26.20;9.05;;;9.40;99.90;;;;;;5056161;28;20513;-47
2022/11/29 11:53:17;;;;;;;20.33;7.55;;;9.50;99.90;;;;;;5052157;28;20051;-46
2022/11/29 11:55:53;;;;;;;24.98;7.80;;;9.40;99.90;;;;;;5054992;28;20385;-43
2022/11/29 11:58:22;;;;;;;31.88;9.52;;;9.50;99.90;;;;;;5045021;28;20153;-44
2022/11/29 12:00:48;;;;;;;21.13;8.13;;;9.50;99.90;;;;;;5055941;28;20115;-42
2022/11/29 12:03:44;;;;;;;23.92;8.57;;;9.50;99.90;;;;;;5057283;28;20050;-47
2022/11/29 12:06:27;;;;;;;26.35;8.77;;;9.50;99.90;;;;;;5068284;28;20060;-44
2022/11/29 12:09:18;;;;;;;27.02;8.45;;;9.50;99.90;;;;;;5052170;28;20045;-43
2022/11/29 12:12:16;;;;;;;29.60;8.75;;;9.40;99.90;;;;;;5056269;28;20048;-50
2022/11/29 12:14:56;;;;;;;22.45;8.07;;;9.50;99.90;;;;;;5029944;28;20061;-48
2022/11/29 12:17:54;;;;;;;25.35;8.65;;;9.50;99.90;;;;;;5031792;28;20067;-44
2022/11/29 12:20:23;;;;;;;28.98;9.25;;;9.70;99.90;;;;;;5020066;28;20237;-46
2022/11/29 12:23:12;;;;;;;25.92;10.82;;;9.70;99.90;;;;;;5033458;28;20052;-42
2022/11/29 12:25:59;;;;;;;27.33;10.13;;;9.80;99.90;;;;;;5033212;28;20068;-43
2022/11/29 12:28:29;;;;;;;24.92;10.32;;;9.70;99.90;;;;;;5033479;28;20128;-48
2022/11/29 12:31:00;;;;;;;27.58;11.50;;;9.70;99.90;;;;;;5016165;28;20059;-48
2022/11/29 12:33:31;;;;;;;31.00;12.20;;;9.70;99.90;;;;;;5033722;28;20134;-48
2022/11/29 12:36:05;;;;;;;23.50;11.93;;;9.70;99.90;;;;;;5033239;28;20049;-45
2022/11/29 12:38:45;;;;;;;21.90;11.35;;;9.70;99.90;;;;;;5016415;28;20140;-48
2022/11/29 12:41:33;;;;;;;27.35;12.00;;;9.60;99.90;;;;;;5015261;28;20049;-45
2022/11/29 12:44:02;;;;;;;24.60;11.68;;;9.80;99.90;;;;;;5033069;28;20047;-46
2022/11/29 12:46:29;;;;;;;24.52;11.98;;;9.70;99.90;;;;;;5032614;28;20545;-43
2022/11/29 12:49:07;;;;;;;26.45;11.55;;;9.80;99.90;;;;;;5033552;28;20102;-47
2022/11/29 12:51:53;;;;;;;17.67;11.32;;;9.80;99.90;;;;;;5041307;28;20052;-46
2022/11/29 12:54:30;;;;;;;23.60;12.13;;;10.00;99.90;;;;;;5049750;28;20037;-46
2022/11/29 12:57:22;;;;;;;27.45;12.68;;;10.00;99.90;;;;;;5056519;28;20423;-50
2022/11/29 13:00:10;;;;;;;20.98;12.88;;;10.20;99.90;;;;;;4993002;28;20054;-43
2022/11/29 13:03:13;;;;;;;22.25;12.05;;;10.30;99.90;;;;;;4989978;28;20436;-43
2022/11/29 13:06:04;;;;;;;22.23;11.97;;;10.40;99.90;;;;;;5011534;28;20099;-46
2022/11/29 13:08:52;;;;;;;23.40;12.32;;;10.40;99.90;;;;;;5004350;28;20440;-49
2022/11/29 13:11:24;;;;;;;21.88;12.70;;;10.40;99.90;;;;;;4987546;28;20049;-48
2022/11/29 13:14:12;;;;;;;19.75;12.52;;;10.30;99.90;;;;;;4993059;28;20139;-45
2022/11/29 13:16:56;;;;;;;23.55;12.73;;;10.30;99.90;;;;;;5005151;28;20046;-45
2022/11/29 13:19:44;;;;;;;16.88;12.23;;;10.20;99.90;;;;;;5005822;28;20291;-47
2022/11/29 13:22:45;;;;;;;23.42;13.25;;;10.20;99.90;;;;;;4992915;28;20042;-44
2022/11/29 13:25:34;;;;;;;22.95;13.15;;;10.30;99.90;;;;;;4953318;28;20583;-46
2022/11/29 13:28:21;;;;;;;19.90;13.52;;;10.20;99.90;;;;;;4954059;28;20126;-44
2022/11/29 13:30:47;;;;;;;19.95;12.73;;;10.30;99.90;;;;;;4972555;28;20390;-48
2022/11/29 13:33:29;;;;;;;17.90;12.32;;;10.30;99.90;;;;;;4973440;28;20149;-44